sensor_id;sensor_type;location;lat;lon;timestamp;P1;durP1;ratioP1;P2;durP2;ratioP2
5702;SDS011;2876;51.738;10.050;2022-10-16T00:00:32;2.33;;;1.43;;
5702;SDS011;2876;51.738;10.050;2022-10-16T00:06:35;2.30;;;1.63;;
5702;SDS011;2876;51.738;10.050;2022-10-16T00:20:18;1.70;;;1.60;;
5702;SDS011;2876;51.738;10.050;2022-10-16T00:26:20;7.83;;;1.80;;
5702;SDS011;2876;51.738;10.050;2022-10-16T00:32:23;4.80;;;2.10;;
5702;SDS011;2876;51.738;10.050;2022-10-16T00:38:26;2.07;;;1.90;;
5702;SDS011;2876;51.738;10.050;2022-10-16T00:44:44;5.87;;;1.90;;
5702;SDS011;2876;51.738;10.050;2022-10-16T00:50:58;1.87;;;1.70;;
5702;SDS011;2876;51.738;10.050;2022-10-16T00:57:01;1.87;;;1.67;;
5702;SDS011;2876;51.738;10.050;2022-10-16T01:03:23;3.13;;;1.83;;
5702;SDS011;2876;51.738;10.050;2022-10-16T01:09:52;4.30;;;3.00;;
5702;SDS011;2876;51.738;10.050;2022-10-16T01:16:44;6.50;;;2.03;;
5702;SDS011;2876;51.738;10.050;2022-10-16T01:23:02;2.33;;;2.10;;
5702;SDS011;2876;51.738;10.050;2022-10-16T01:29:30;1.93;;;1.77;;
5702;SDS011;2876;51.738;10.050;2022-10-16T01:36:01;2.07;;;1.87;;
5702;SDS011;2876;51.738;10.050;2022-10-16T01:42:31;12.83;;;2.30;;
5702;SDS011;2876;51.738;10.050;2022-10-16T01:48:40;4.83;;;1.87;;
5702;SDS011;2876;51.738;10.050;2022-10-16T01:54:43;2.80;;;2.10;;
5702;SDS011;2876;51.738;10.050;2022-10-16T02:00:49;2.07;;;1.63;;
5702;SDS011;2876;51.738;10.050;2022-10-16T02:06:53;2.20;;;2.00;;
5702;SDS011;2876;51.738;10.050;2022-10-16T02:19:07;2.07;;;1.80;;
5702;SDS011;2876;51.738;10.050;2022-10-16T02:31:24;6.57;;;1.70;;
5702;SDS011;2876;51.738;10.050;2022-10-16T02:37:30;2.40;;;1.50;;
5702;SDS011;2876;51.738;10.050;2022-10-16T02:43:33;2.00;;;1.80;;
5702;SDS011;2876;51.738;10.050;2022-10-16T02:49:35;5.93;;;1.70;;
5702;SDS011;2876;51.738;10.050;2022-10-16T02:55:37;4.30;;;1.80;;
5702;SDS011;2876;51.738;10.050;2022-10-16T03:01:39;1.77;;;1.67;;
5702;SDS011;2876;51.738;10.050;2022-10-16T03:07:41;5.00;;;1.90;;
5702;SDS011;2876;51.738;10.050;2022-10-16T03:13:43;1.87;;;1.70;;
5702;SDS011;2876;51.738;10.050;2022-10-16T03:19:45;7.80;;;2.37;;
5702;SDS011;2876;51.738;10.050;2022-10-16T03:25:47;1.60;;;1.50;;
5702;SDS011;2876;51.738;10.050;2022-10-16T03:31:49;2.53;;;1.93;;
5702;SDS011;2876;51.738;10.050;2022-10-16T03:37:51;7.07;;;2.10;;
5702;SDS011;2876;51.738;10.050;2022-10-16T03:43:53;3.20;;;1.60;;
5702;SDS011;2876;51.738;10.050;2022-10-16T03:56:04;3.63;;;1.70;;
5702;SDS011;2876;51.738;10.050;2022-10-16T04:02:06;1.87;;;1.67;;
5702;SDS011;2876;51.738;10.050;2022-10-16T04:08:08;2.37;;;1.70;;
5702;SDS011;2876;51.738;10.050;2022-10-16T04:14:11;3.40;;;1.67;;
5702;SDS011;2876;51.738;10.050;2022-10-16T04:20:13;3.80;;;1.80;;
5702;SDS011;2876;51.738;10.050;2022-10-16T04:26:15;2.50;;;2.30;;
5702;SDS011;2876;51.738;10.050;2022-10-16T04:38:54;2.83;;;2.10;;
5702;SDS011;2876;51.738;10.050;2022-10-16T04:44:56;3.03;;;1.77;;
5702;SDS011;2876;51.738;10.050;2022-10-16T04:50:58;1.93;;;1.83;;
5702;SDS011;2876;51.738;10.050;2022-10-16T04:57:01;2.77;;;1.83;;
5702;SDS011;2876;51.738;10.050;2022-10-16T05:03:03;7.90;;;1.70;;
5702;SDS011;2876;51.738;10.050;2022-10-16T05:09:08;1.67;;;1.47;;
5702;SDS011;2876;51.738;10.050;2022-10-16T05:15:11;1.50;;;1.40;;
5702;SDS011;2876;51.738;10.050;2022-10-16T05:21:26;2.13;;;1.73;;
5702;SDS011;2876;51.738;10.050;2022-10-16T05:27:28;2.10;;;1.90;;
5702;SDS011;2876;51.738;10.050;2022-10-16T05:33:31;3.40;;;2.07;;
5702;SDS011;2876;51.738;10.050;2022-10-16T05:39:32;2.00;;;1.80;;
5702;SDS011;2876;51.738;10.050;2022-10-16T05:45:35;1.47;;;1.37;;
5702;SDS011;2876;51.738;10.050;2022-10-16T05:51:39;1.97;;;1.77;;
5702;SDS011;2876;51.738;10.050;2022-10-16T05:57:43;1.90;;;1.53;;
5702;SDS011;2876;51.738;10.050;2022-10-16T06:03:46;2.93;;;1.50;;
5702;SDS011;2876;51.738;10.050;2022-10-16T06:10:00;1.53;;;1.37;;
5702;SDS011;2876;51.738;10.050;2022-10-16T06:16:02;2.00;;;1.67;;
5702;SDS011;2876;51.738;10.050;2022-10-16T06:22:06;2.23;;;1.47;;
5702;SDS011;2876;51.738;10.050;2022-10-16T06:28:08;1.60;;;1.50;;
5702;SDS011;2876;51.738;10.050;2022-10-16T06:34:10;1.90;;;1.70;;
5702;SDS011;2876;51.738;10.050;2022-10-16T06:40:13;2.10;;;2.00;;
5702;SDS011;2876;51.738;10.050;2022-10-16T06:46:17;4.13;;;1.67;;
5702;SDS011;2876;51.738;10.050;2022-10-16T06:52:23;3.47;;;1.70;;
5702;SDS011;2876;51.738;10.050;2022-10-16T06:58:26;3.30;;;1.60;;
5702;SDS011;2876;51.738;10.050;2022-10-16T07:04:28;1.40;;;1.20;;
5702;SDS011;2876;51.738;10.050;2022-10-16T07:10:31;4.23;;;1.80;;
5702;SDS011;2876;51.738;10.050;2022-10-16T07:16:33;1.80;;;1.40;;
5702;SDS011;2876;51.738;10.050;2022-10-16T07:22:36;1.70;;;1.30;;
5702;SDS011;2876;51.738;10.050;2022-10-16T07:28:43;3.53;;;2.10;;
5702;SDS011;2876;51.738;10.050;2022-10-16T07:34:46;3.60;;;1.70;;
5702;SDS011;2876;51.738;10.050;2022-10-16T07:47:03;3.20;;;1.57;;
5702;SDS011;2876;51.738;10.050;2022-10-16T07:53:05;1.80;;;1.70;;
5702;SDS011;2876;51.738;10.050;2022-10-16T07:59:07;2.60;;;1.97;;
5702;SDS011;2876;51.738;10.050;2022-10-16T08:05:11;3.30;;;1.70;;
5702;SDS011;2876;51.738;10.050;2022-10-16T08:11:14;5.93;;;2.93;;
5702;SDS011;2876;51.738;10.050;2022-10-16T08:17:19;1.67;;;1.57;;
5702;SDS011;2876;51.738;10.050;2022-10-16T08:23:21;3.40;;;1.40;;
5702;SDS011;2876;51.738;10.050;2022-10-16T08:29:23;2.30;;;1.83;;
5702;SDS011;2876;51.738;10.050;2022-10-16T08:35:25;3.10;;;1.47;;
5702;SDS011;2876;51.738;10.050;2022-10-16T08:54:27;2.37;;;1.20;;
5702;SDS011;2876;51.738;10.050;2022-10-16T09:00:42;1.60;;;1.43;;
5702;SDS011;2876;51.738;10.050;2022-10-16T09:06:59;1.67;;;1.03;;
5702;SDS011;2876;51.738;10.050;2022-10-16T09:20:03;2.40;;;1.83;;
5702;SDS011;2876;51.738;10.050;2022-10-16T09:26:44;1.30;;;1.20;;
5702;SDS011;2876;51.738;10.050;2022-10-16T09:32:48;1.67;;;1.30;;
5702;SDS011;2876;51.738;10.050;2022-10-16T09:39:10;2.90;;;1.20;;
5702;SDS011;2876;51.738;10.050;2022-10-16T09:45:22;1.20;;;1.10;;
5702;SDS011;2876;51.738;10.050;2022-10-16T09:51:32;1.00;;;0.90;;
5702;SDS011;2876;51.738;10.050;2022-10-16T09:57:47;1.67;;;1.20;;
5702;SDS011;2876;51.738;10.050;2022-10-16T10:03:55;3.50;;;1.00;;
5702;SDS011;2876;51.738;10.050;2022-10-16T10:10:04;1.53;;;1.00;;
5702;SDS011;2876;51.738;10.050;2022-10-16T10:16:26;1.97;;;1.00;;
5702;SDS011;2876;51.738;10.050;2022-10-16T10:36:30;1.90;;;0.87;;
5702;SDS011;2876;51.738;10.050;2022-10-16T10:42:53;2.57;;;0.90;;
5702;SDS011;2876;51.738;10.050;2022-10-16T10:49:29;1.57;;;1.10;;
5702;SDS011;2876;51.738;10.050;2022-10-16T10:55:54;2.53;;;1.23;;
5702;SDS011;2876;51.738;10.050;2022-10-16T11:08:44;1.93;;;0.93;;
5702;SDS011;2876;51.738;10.050;2022-10-16T11:21:27;0.83;;;0.83;;
5702;SDS011;2876;51.738;10.050;2022-10-16T11:27:42;1.63;;;1.27;;
5702;SDS011;2876;51.738;10.050;2022-10-16T11:34:26;8.73;;;0.90;;
5702;SDS011;2876;51.738;10.050;2022-10-16T11:40:43;1.20;;;0.80;;
5702;SDS011;2876;51.738;10.050;2022-10-16T11:47:22;1.00;;;0.90;;
5702;SDS011;2876;51.738;10.050;2022-10-16T12:13:32;1.83;;;1.00;;
5702;SDS011;2876;51.738;10.050;2022-10-16T12:19:37;1.97;;;0.80;;
5702;SDS011;2876;51.738;10.050;2022-10-16T12:25:40;1.00;;;0.90;;
5702;SDS011;2876;51.738;10.050;2022-10-16T12:31:47;2.97;;;1.13;;
5702;SDS011;2876;51.738;10.050;2022-10-16T12:38:08;6.03;;;0.90;;
5702;SDS011;2876;51.738;10.050;2022-10-16T12:50:30;1.83;;;1.10;;
5702;SDS011;2876;51.738;10.050;2022-10-16T12:56:37;1.03;;;0.90;;
5702;SDS011;2876;51.738;10.050;2022-10-16T13:09:54;1.10;;;0.90;;
5702;SDS011;2876;51.738;10.050;2022-10-16T13:22:37;1.77;;;1.30;;
5702;SDS011;2876;51.738;10.050;2022-10-16T13:28:58;2.30;;;0.80;;
5702;SDS011;2876;51.738;10.050;2022-10-16T13:35:02;1.13;;;0.80;;
5702;SDS011;2876;51.738;10.050;2022-10-16T13:41:19;2.43;;;0.80;;
5702;SDS011;2876;51.738;10.050;2022-10-16T13:47:26;0.80;;;0.80;;
5702;SDS011;2876;51.738;10.050;2022-10-16T13:53:32;1.00;;;0.90;;
5702;SDS011;2876;51.738;10.050;2022-10-16T13:59:36;1.00;;;0.80;;
5702;SDS011;2876;51.738;10.050;2022-10-16T14:05:53;2.30;;;0.90;;
5702;SDS011;2876;51.738;10.050;2022-10-16T14:12:08;2.40;;;0.90;;
5702;SDS011;2876;51.738;10.050;2022-10-16T14:18:16;0.73;;;0.73;;
5702;SDS011;2876;51.738;10.050;2022-10-16T14:30:34;1.10;;;1.00;;
5702;SDS011;2876;51.738;10.050;2022-10-16T14:36:40;1.53;;;0.83;;
5702;SDS011;2876;51.738;10.050;2022-10-16T14:42:42;1.40;;;0.90;;
5702;SDS011;2876;51.738;10.050;2022-10-16T14:48:48;1.00;;;0.90;;
5702;SDS011;2876;51.738;10.050;2022-10-16T14:54:52;1.13;;;0.80;;
5702;SDS011;2876;51.738;10.050;2022-10-16T15:00:56;1.93;;;1.10;;
5702;SDS011;2876;51.738;10.050;2022-10-16T15:06:58;1.70;;;0.83;;
5702;SDS011;2876;51.738;10.050;2022-10-16T15:13:00;2.20;;;1.00;;
5702;SDS011;2876;51.738;10.050;2022-10-16T15:19:02;1.23;;;0.80;;
5702;SDS011;2876;51.738;10.050;2022-10-16T15:31:08;1.37;;;0.97;;
5702;SDS011;2876;51.738;10.050;2022-10-16T15:37:10;1.63;;;0.80;;
5702;SDS011;2876;51.738;10.050;2022-10-16T15:43:16;10.10;;;1.17;;
5702;SDS011;2876;51.738;10.050;2022-10-16T15:49:19;1.57;;;1.47;;
5702;SDS011;2876;51.738;10.050;2022-10-16T16:01:46;1.53;;;0.90;;
5702;SDS011;2876;51.738;10.050;2022-10-16T16:13:58;5.50;;;0.97;;
5702;SDS011;2876;51.738;10.050;2022-10-16T16:20:00;1.00;;;0.90;;
5702;SDS011;2876;51.738;10.050;2022-10-16T16:32:16;0.80;;;0.80;;
5702;SDS011;2876;51.738;10.050;2022-10-16T16:38:18;1.10;;;0.90;;
5702;SDS011;2876;51.738;10.050;2022-10-16T16:44:20;1.00;;;0.80;;
5702;SDS011;2876;51.738;10.050;2022-10-16T16:50:22;3.90;;;0.93;;
5702;SDS011;2876;51.738;10.050;2022-10-16T16:56:24;2.60;;;1.20;;
5702;SDS011;2876;51.738;10.050;2022-10-16T17:02:27;0.80;;;0.80;;
5702;SDS011;2876;51.738;10.050;2022-10-16T17:08:29;1.50;;;0.90;;
5702;SDS011;2876;51.738;10.050;2022-10-16T17:14:31;6.30;;;1.20;;
5702;SDS011;2876;51.738;10.050;2022-10-16T17:20:35;2.80;;;1.50;;
5702;SDS011;2876;51.738;10.050;2022-10-16T17:26:37;3.43;;;1.03;;
5702;SDS011;2876;51.738;10.050;2022-10-16T17:32:41;1.77;;;1.00;;
5702;SDS011;2876;51.738;10.050;2022-10-16T17:38:43;0.97;;;0.90;;
5702;SDS011;2876;51.738;10.050;2022-10-16T17:44:46;1.10;;;1.00;;
5702;SDS011;2876;51.738;10.050;2022-10-16T17:50:48;0.80;;;0.80;;
5702;SDS011;2876;51.738;10.050;2022-10-16T17:56:50;1.43;;;1.10;;
5702;SDS011;2876;51.738;10.050;2022-10-16T18:02:52;2.77;;;1.30;;
5702;SDS011;2876;51.738;10.050;2022-10-16T18:08:55;3.83;;;0.90;;
5702;SDS011;2876;51.738;10.050;2022-10-16T18:14:58;1.47;;;0.97;;
5702;SDS011;2876;51.738;10.050;2022-10-16T18:21:02;2.10;;;0.93;;
5702;SDS011;2876;51.738;10.050;2022-10-16T18:27:15;5.13;;;1.00;;
5702;SDS011;2876;51.738;10.050;2022-10-16T18:39:54;3.83;;;1.20;;
5702;SDS011;2876;51.738;10.050;2022-10-16T18:46:01;3.13;;;1.20;;
5702;SDS011;2876;51.738;10.050;2022-10-16T18:52:06;2.40;;;1.10;;
5702;SDS011;2876;51.738;10.050;2022-10-16T18:58:08;1.83;;;1.50;;
5702;SDS011;2876;51.738;10.050;2022-10-16T19:04:11;1.87;;;1.30;;
5702;SDS011;2876;51.738;10.050;2022-10-16T19:10:16;7.57;;;1.87;;
5702;SDS011;2876;51.738;10.050;2022-10-16T19:16:21;1.50;;;1.40;;
5702;SDS011;2876;51.738;10.050;2022-10-16T19:22:32;2.50;;;1.70;;
5702;SDS011;2876;51.738;10.050;2022-10-16T19:28:58;4.13;;;2.00;;
5702;SDS011;2876;51.738;10.050;2022-10-16T19:35:02;5.47;;;2.17;;
5702;SDS011;2876;51.738;10.050;2022-10-16T19:41:07;4.40;;;2.00;;
5702;SDS011;2876;51.738;10.050;2022-10-16T19:47:12;1.73;;;1.40;;
5702;SDS011;2876;51.738;10.050;2022-10-16T19:53:14;1.37;;;1.27;;
5702;SDS011;2876;51.738;10.050;2022-10-16T19:59:16;1.60;;;1.50;;
5702;SDS011;2876;51.738;10.050;2022-10-16T20:05:20;11.40;;;1.50;;
5702;SDS011;2876;51.738;10.050;2022-10-16T20:11:23;1.70;;;1.20;;
5702;SDS011;2876;51.738;10.050;2022-10-16T20:17:28;4.60;;;1.50;;
5702;SDS011;2876;51.738;10.050;2022-10-16T20:23:31;2.23;;;1.57;;
5702;SDS011;2876;51.738;10.050;2022-10-16T20:29:33;1.60;;;1.50;;
5702;SDS011;2876;51.738;10.050;2022-10-16T20:35:39;3.93;;;1.30;;
5702;SDS011;2876;51.738;10.050;2022-10-16T20:41:44;2.93;;;1.77;;
5702;SDS011;2876;51.738;10.050;2022-10-16T20:47:46;4.03;;;1.60;;
5702;SDS011;2876;51.738;10.050;2022-10-16T20:53:55;3.50;;;1.53;;
5702;SDS011;2876;51.738;10.050;2022-10-16T21:00:03;2.53;;;1.33;;
5702;SDS011;2876;51.738;10.050;2022-10-16T21:06:07;3.73;;;2.00;;
5702;SDS011;2876;51.738;10.050;2022-10-16T21:12:10;2.47;;;1.67;;
5702;SDS011;2876;51.738;10.050;2022-10-16T21:18:12;3.40;;;1.60;;
5702;SDS011;2876;51.738;10.050;2022-10-16T21:24:14;3.77;;;2.03;;
5702;SDS011;2876;51.738;10.050;2022-10-16T21:30:18;8.20;;;2.10;;
5702;SDS011;2876;51.738;10.050;2022-10-16T21:36:27;1.80;;;1.70;;
5702;SDS011;2876;51.738;10.050;2022-10-16T21:42:34;2.40;;;1.83;;
5702;SDS011;2876;51.738;10.050;2022-10-16T21:48:37;1.87;;;1.60;;
5702;SDS011;2876;51.738;10.050;2022-10-16T21:54:39;7.00;;;2.27;;
5702;SDS011;2876;51.738;10.050;2022-10-16T22:00:42;1.70;;;1.60;;
5702;SDS011;2876;51.738;10.050;2022-10-16T22:06:44;4.30;;;1.80;;
5702;SDS011;2876;51.738;10.050;2022-10-16T22:12:59;2.27;;;2.07;;
5702;SDS011;2876;51.738;10.050;2022-10-16T22:19:02;3.37;;;1.70;;
5702;SDS011;2876;51.738;10.050;2022-10-16T22:25:07;1.90;;;1.70;;
5702;SDS011;2876;51.738;10.050;2022-10-16T22:38:51;7.93;;;2.10;;
5702;SDS011;2876;51.738;10.050;2022-10-16T22:45:01;3.13;;;2.33;;
5702;SDS011;2876;51.738;10.050;2022-10-16T22:51:15;9.03;;;1.87;;
5702;SDS011;2876;51.738;10.050;2022-10-16T22:57:18;2.47;;;2.27;;
5702;SDS011;2876;51.738;10.050;2022-10-16T23:03:20;5.27;;;2.90;;
5702;SDS011;2876;51.738;10.050;2022-10-16T23:09:22;6.13;;;2.30;;
5702;SDS011;2876;51.738;10.050;2022-10-16T23:15:24;2.23;;;2.03;;
5702;SDS011;2876;51.738;10.050;2022-10-16T23:21:26;4.33;;;2.00;;
5702;SDS011;2876;51.738;10.050;2022-10-16T23:27:29;3.17;;;2.33;;
5702;SDS011;2876;51.738;10.050;2022-10-16T23:33:42;2.23;;;2.03;;
5702;SDS011;2876;51.738;10.050;2022-10-16T23:39:51;2.57;;;2.37;;
5702;SDS011;2876;51.738;10.050;2022-10-16T23:45:54;3.60;;;2.17;;
5702;SDS011;2876;51.738;10.050;2022-10-16T23:51:56;4.20;;;2.60;;
5702;SDS011;2876;51.738;10.050;2022-10-16T23:57:58;3.33;;;3.03;;
